Flight Track Log - Related Links

Times and Time Zones

All times are in EDT time to prevent confusion due to time zone crossing. See the N27XP flight status page for this flight to view local times or setup timezone preferences in your user account.

Time Position Orientation Groundspeed Altitude Reporting Facility
EDT Latitude Longitude Course Direction KTS MPH feet Rate Location/Type
Tue 08:10:24 AM 35.1772 -79.5358 248° West 263 303 5,300  Level Washington Center
Tue 08:11:26 AM 35.1511 -79.6258 250° West 269 310 8,100 2,350 Climbing Washington Center
Tue 08:12:24 AM 35.1278 -79.7036 250° West 269 310 10,000 1,932 Climbing Washington Center
Tue 08:13:24 AM 35.0992 -79.8061 251° West 287 330 11,900 1,679 Climbing Washington Center
Tue 08:15:00 AM 35.0599 -79.9537 248° West  Level FlightAware Approximate
Tue 08:15:12 AM 35.0464 -79.9847 250° West 302 348 14,700  Level Atlanta Center
Tue 08:16:12 AM 35.0161 -80.0800 249° West 325 374 16,100 1,400 Climbing Atlanta Center
Tue 08:17:12 AM 34.9858 -80.1853 251° West 332 382 17,500 1,300 Climbing Atlanta Center
Tue 08:18:12 AM 34.9539 -80.2958 251° West 338 389 18,700 1,350 Climbing Atlanta Center
Tue 08:19:12 AM 34.9178 -80.4139 250° West 343 395 20,200 1,350 Climbing Atlanta Center
Tue 08:20:12 AM 34.8836 -80.5294 250° West 349 402 21,400 1,200 Climbing Atlanta Center
Tue 08:21:12 AM 34.8514 -80.6419 251° West 349 402 22,600 1,200 Climbing Atlanta Center
Tue 08:22:12 AM 34.8128 -80.7575 248° West 358 412 23,800 1,100 Climbing Atlanta Center
Tue 08:23:12 AM 34.7783 -80.8753 250° West 368 423 24,800 1,000 Climbing Atlanta Center
Tue 08:24:12 AM 34.7436 -80.9903 250° West 372 428 25,800 1,000 Climbing Atlanta Center
Tue 08:25:12 AM 34.7089 -81.1128 251° West 378 435 26,800 1,050 Climbing Atlanta Center
Tue 08:26:12 AM 34.6758 -81.2125 248° West 373 429 27,900 600 Climbing Atlanta Center
Tue 08:27:12 AM 34.6411 -81.3322 251° West 378 435 28,000 100 Climbing Atlanta Center
Tue 08:28:12 AM 34.5978 -81.4622 248° West 378 435 28,100 400 Climbing Atlanta Center
Tue 08:29:12 AM 34.5608 -81.5872 250° West 390 449 28,800 800 Climbing Atlanta Center
Tue 08:30:12 AM 34.5236 -81.7092 250° West 390 449 29,700 900 Climbing Atlanta Center
Tue 08:31:12 AM 34.4839 -81.8311 248° West 390 449 30,600 950 Climbing Atlanta Center
Tue 08:32:12 AM 34.4464 -81.9506 249° West 390 449 31,600 700 Climbing Atlanta Center
Tue 08:33:12 AM 34.4067 -82.0700 248° West 390 449 32,000 200 Climbing Atlanta Center
Tue 08:34:12 AM 34.3669 -82.1942 249° West 390 449 32,000 50 Level Atlanta Center
Tue 08:35:12 AM 34.3311 -82.3131 250° West 407 468 32,100 600 Climbing Atlanta Center
Tue 08:36:12 AM 34.2908 -82.4347 248° West 407 468 33,200 950 Climbing Atlanta Center
Tue 08:37:12 AM 34.2547 -82.5536 250° West 402 463 34,000 400 Climbing Atlanta Center
Tue 08:38:12 AM 34.2144 -82.6772 249° West 394 453 34,000  Level Atlanta Center
Tue 08:39:12 AM 34.1742 -82.8008 249° West 394 453 34,000  Level Atlanta Center
Tue 08:40:12 AM 34.1356 -82.9244 249° West 394 453 34,000  Level Atlanta Center
Tue 08:41:12 AM 34.0950 -83.0481 248° West 394 453 34,000  Level Atlanta Center
Tue 08:42:12 AM 34.0519 -83.1664 246° West 394 453 34,000  Level Atlanta Center
Tue 08:43:12 AM 34.0131 -83.2869 249° West 394 453 34,000  Level Atlanta Center
Tue 08:44:12 AM 33.9764 -83.4075 250° West 394 453 34,000  Level Atlanta Center
Tue 08:45:12 AM 33.9350 -83.5256 247° West 394 453 34,000  Level Atlanta Center
Tue 08:46:12 AM 33.8917 -83.6558 248° West 394 453 34,000  Level Atlanta Center
Tue 08:47:12 AM 33.8503 -83.7736 247° West 394 453 34,000  Level Atlanta Center
Tue 08:48:12 AM 33.8131 -83.8964 250° West 388 447 34,000 -350 Level Atlanta Center
Tue 08:49:12 AM 33.8047 -84.0239 266° West 381 438 33,300 -700 Descending Atlanta Center
Tue 08:50:12 AM 33.8006 -84.1514 268° West 381 438 32,600 -750 Descending Atlanta Center
Tue 08:51:12 AM 33.7897 -84.2814 264° West 387 445 31,800 -900 Descending Atlanta Center
Tue 08:52:12 AM 33.7917 -84.4114 271° West 387 445 30,800 -950 Descending Atlanta Center
Tue 08:53:12 AM 33.7850 -84.5436 267° West 387 445 29,900 -950 Descending Atlanta Center
Tue 08:54:12 AM 33.7800 -84.6786 267° West 401 461 28,900 -1,000 Descending Atlanta Center
Tue 08:55:12 AM 33.7772 -84.8186 269° West 408 470 27,900 -950 Descending Atlanta Center
Tue 08:56:12 AM 33.7700 -84.9608 267° West 422 486 27,000 -950 Descending Atlanta Center
Tue 08:57:12 AM 33.7625 -85.0983 266° West 422 486 26,000 -950 Descending Atlanta Center
Tue 08:58:12 AM 33.7572 -85.2206 267° West 422 486 25,100 -900 Descending Atlanta Center
Tue 08:59:12 AM 33.7494 -85.3631 266° West 422 486 24,200 -1,300 Descending Atlanta Center
Tue 09:00:12 AM 33.7439 -85.5053 267° West 429 494 22,500 -2,050 Descending Atlanta Center
Tue 09:01:12 AM 33.7336 -85.6600 265° West 429 494 20,100 -2,100 Descending Atlanta Center
Tue 09:02:12 AM 33.7192 -85.7919 263° West 419 482 18,300 -1,946 Descending Atlanta Center
Tue 09:03:03 AM 33.7028 -85.9067 260° West 393 452 16,500 -2,154 Descending Atlanta Center
Tue 09:04:09 AM 33.6839 -86.0458 261° West 397 457 14,100 -2,126 Descending Atlanta Center
Tue 09:05:10 AM 33.6694 -86.1706 262° West 386 444 12,000 -2,115 Descending Atlanta Center
Tue 09:06:11 AM 33.6358 -86.2969 252° West 353 406 9,800 -1,820 Descending Atlanta Center
Tue 09:07:12 AM 33.6031 -86.3783 244° Southwest 357 411 8,300 -1,686 Descending Atlanta Center
Tue 09:08:12 AM 33.5722 -86.4597 246° West 310 357 6,400 -1,650 Descending Atlanta Center
Tue 09:09:12 AM 33.5436 -86.5386 247° West 281 323 5,000 -1,350 Descending Atlanta Center
Tue 09:10:12 AM 33.5167 -86.6200 248° West 269 310 3,700 -984 Descending Atlanta Center
Tue 09:11:20 AM 33.4875 -86.7239 251° West 247 284 2,900 -563 Descending Atlanta Center
Tue 09:12:20 AM 33.5050 -86.7817 290° West 174 200 2,500 -887 Descending Atlanta Center
Tue 09:13:15 AM 33.5381 -86.7928 344° North 119 137 1,200 -1,418 Descending Atlanta Center
Tue 09:15:00 AM 33.5500 -86.7500 16° North  Level FlightAware Approximate

Login

Don't have an account? Register now (free) for customized features, flight alerts, and more!